Terminal Aerodrome Forecast
Issued by NWS Bismarck, ND

Home | Current Version | Previous Version | Text Only | Print | Product List | Glossary On
Versions: 1 2 3 4 5 6 7 8 9 10 11 12
000
FTUS43 KBIS 291134
TAFBIS
TAF
KBIS 291134Z 2912/3012 36009KT P6SM SCT150
     FM291300 01006KT P6SM SCT120 BKN150
     FM291700 02010KT P6SM SCT130
     FM300100 05006KT P6SM SKC
     FM300700 09004KT P6SM SKC=

USA.gov is the U.S. government's official web portal to all federal, state and local government web resources and services.